createdAt,value
2019-02-18T00:01:22.226Z,50.77
2019-02-18T00:03:52.926Z,51.20
2019-02-18T00:06:23.552Z,51.53
2019-02-18T00:08:54.374Z,51.80
2019-02-18T00:11:24.935Z,51.47
2019-02-18T00:13:55.391Z,51.67
2019-02-18T00:16:25.938Z,48.97
2019-02-18T00:18:56.426Z,53.07
2019-02-18T00:21:27.104Z,52.90
2019-02-18T00:23:57.846Z,52.23
2019-02-18T00:26:28.306Z,52.13
2019-02-18T00:28:58.862Z,52.07
2019-02-18T00:31:29.486Z,51.23
2019-02-18T00:34:00.107Z,49.60
2019-02-18T00:36:31.067Z,49.87
2019-02-18T00:39:01.826Z,49.97
2019-02-18T00:41:32.578Z,50.67
2019-02-18T00:44:03.646Z,51.17
2019-02-18T00:46:34.207Z,48.63
2019-02-18T00:49:04.726Z,50.43
2019-02-18T00:51:35.390Z,49.23
2019-02-18T00:54:05.999Z,50.80
2019-02-18T00:56:36.566Z,51.27
2019-02-18T00:59:07.626Z,49.63
2019-02-18T01:01:38.186Z,49.87
2019-02-18T01:04:08.792Z,48.63
2019-02-18T01:06:39.413Z,50.03
2019-02-18T01:09:10.846Z,48.67
2019-02-18T01:11:41.686Z,49.83
2019-02-18T01:14:12.475Z,48.13
2019-02-18T01:16:43.302Z,48.03
2019-02-18T01:19:13.827Z,48.00
2019-02-18T01:21:44.627Z,49.87
2019-02-18T01:24:15.259Z,49.40
2019-02-18T01:26:45.788Z,46.70
2019-02-18T01:29:16.581Z,48.73
2019-02-18T01:31:47.958Z,49.83
2019-02-18T01:34:18.686Z,48.63
2019-02-18T01:36:49.944Z,49.03
2019-02-18T01:39:20.666Z,48.53
2019-02-18T01:41:51.118Z,49.77
2019-02-18T01:44:21.770Z,47.33
2019-02-18T01:46:52.486Z,47.67
2019-02-18T01:49:23.155Z,49.60
2019-02-18T01:51:53.906Z,47.30
2019-02-18T01:54:24.698Z,48.20
2019-02-18T01:56:55.858Z,48.90
2019-02-18T01:59:26.475Z,48.20
2019-02-18T02:01:57.163Z,49.00
2019-02-18T02:04:27.806Z,47.97
2019-02-18T02:06:58.387Z,45.03
2019-02-18T02:09:29.106Z,46.30
2019-02-18T02:12:01.378Z,42.37
2019-02-18T02:14:32.046Z,43.93
2019-02-18T02:17:02.684Z,43.83
2019-02-18T02:19:33.371Z,44.60
2019-02-18T02:22:04.038Z,43.60
2019-02-18T02:24:34.786Z,44.67
2019-02-18T02:27:05.486Z,44.13
2019-02-18T02:29:36.159Z,44.43
2019-02-18T02:32:07.048Z,44.13
2019-02-18T02:34:37.777Z,44.70
2019-02-18T02:37:08.567Z,42.03
2019-02-18T02:39:39.126Z,43.20
2019-02-18T02:42:09.666Z,42.13
2019-02-18T02:44:40.203Z,42.20
2019-02-18T02:47:10.998Z,41.70
2019-02-18T02:49:41.614Z,42.00
2019-02-18T02:52:12.148Z,41.63
2019-02-18T02:54:42.804Z,42.57
2019-02-18T02:57:13.408Z,40.43
2019-02-18T02:59:43.947Z,40.27
2019-02-18T03:02:15.038Z,38.63
2019-02-18T03:04:45.666Z,39.23
2019-02-18T03:07:16.361Z,40.10
2019-02-18T03:09:47.068Z,40.20
2019-02-18T03:12:17.917Z,41.03
2019-02-18T03:14:48.467Z,40.53
2019-02-18T03:17:19.446Z,42.43
2019-02-18T03:19:50.067Z,44.43
2019-02-18T03:22:20.766Z,42.93
2019-02-18T03:25:21.287Z,42.47
2019-02-18T03:28:02.655Z,43.00
2019-02-18T03:30:50.027Z,44.43
2019-02-18T03:33:29.648Z,43.97
2019-02-18T03:36:00.326Z,44.20
2019-02-18T03:38:31.916Z,45.27
2019-02-18T03:41:03.630Z,44.87
2019-02-18T03:43:34.466Z,44.70
2019-02-18T03:46:05.116Z,44.83
2019-02-18T03:48:36.000Z,45.60
2019-02-18T03:51:06.619Z,43.97
2019-02-18T03:53:37.244Z,48.13
2019-02-18T03:56:08.086Z,48.73
2019-02-18T03:58:38.828Z,48.40
2019-02-18T04:01:09.535Z,49.50
2019-02-18T04:03:40.308Z,50.67
2019-02-18T04:06:10.990Z,50.97
2019-02-18T04:08:43.165Z,50.87
2019-02-18T04:11:14.398Z,51.80
2019-02-18T04:13:44.970Z,49.67
2019-02-18T04:16:15.449Z,50.20
2019-02-18T04:18:47.650Z,51.90
2019-02-18T04:21:18.295Z,51.43
2019-02-18T04:23:48.868Z,52.43
2019-02-18T04:26:19.534Z,51.63
2019-02-18T04:28:49.988Z,53.77
2019-02-18T04:31:20.506Z,52.13
2019-02-18T04:33:50.936Z,52.63
2019-02-18T04:36:21.579Z,54.77
2019-02-18T04:38:54.409Z,53.90
2019-02-18T04:41:24.550Z,54.83
2019-02-18T04:43:55.207Z,54.03
2019-02-18T04:46:25.852Z,51.40
2019-02-18T04:48:56.597Z,53.43
2019-02-18T04:51:27.549Z,52.77
2019-02-18T04:53:58.205Z,53.33
2019-02-18T04:56:28.967Z,52.13
2019-02-18T04:58:59.428Z,54.10
2019-02-18T05:01:29.986Z,53.67
2019-02-18T05:04:00.552Z,54.03
2019-02-18T05:06:31.160Z,53.07
2019-02-18T05:09:05.300Z,53.90
2019-02-18T05:11:34.059Z,56.37
2019-02-18T05:14:04.802Z,53.17
2019-02-18T05:16:35.401Z,52.63
2019-02-18T05:19:09.583Z,54.10
2019-02-18T05:21:40.257Z,53.00
2019-02-18T05:24:10.927Z,52.93
2019-02-18T05:26:41.606Z,54.17
2019-02-18T05:29:12.132Z,53.83
2019-02-18T05:31:42.756Z,53.30
2019-02-18T05:34:13.318Z,52.07
2019-02-18T05:36:43.946Z,53.67
2019-02-18T05:39:17.877Z,55.47
2019-02-18T05:41:47.061Z,53.23
2019-02-18T05:44:17.645Z,54.67
2019-02-18T05:46:48.338Z,53.07
2019-02-18T05:49:19.062Z,54.07
2019-02-18T05:51:49.719Z,55.47
2019-02-18T05:54:20.378Z,54.67
2019-02-18T05:56:52.718Z,55.33
2019-02-18T05:59:23.214Z,53.80
2019-02-18T06:01:53.749Z,51.87
2019-02-18T06:04:24.277Z,51.53
2019-02-18T06:06:54.813Z,52.57
2019-02-18T06:09:29.701Z,52.47
2019-02-18T06:11:57.999Z,53.57
2019-02-18T06:14:28.767Z,51.50
2019-02-18T06:16:59.399Z,51.57
2019-02-18T06:19:30.347Z,51.30
2019-02-18T06:22:01.095Z,51.13
2019-02-18T06:24:31.741Z,53.37
2019-02-18T06:27:02.479Z,50.83
2019-02-18T06:29:32.981Z,50.30
2019-02-18T06:32:03.841Z,49.30
2019-02-18T06:34:34.327Z,49.57
2019-02-18T06:37:04.922Z,51.57
2019-02-18T06:39:41.202Z,49.53
2019-02-18T06:42:07.678Z,48.53
2019-02-18T06:44:44.648Z,48.93
2019-02-18T06:47:21.058Z,49.00
2019-02-18T06:49:51.614Z,48.83
2019-02-18T06:52:22.218Z,50.20
2019-02-18T06:54:53.218Z,48.60
2019-02-18T06:57:33.084Z,50.13
2019-02-18T07:00:13.146Z,48.63
2019-02-18T07:03:02.546Z,50.30
2019-02-18T07:05:42.601Z,48.33
2019-02-18T07:08:31.978Z,50.47
2019-02-18T07:11:16.298Z,51.60
2019-02-18T07:13:52.850Z,53.90
2019-02-18T07:16:23.618Z,51.73
2019-02-18T07:18:54.166Z,50.77
2019-02-18T07:21:24.844Z,51.90
2019-02-18T07:23:55.503Z,52.43
2019-02-18T07:26:26.344Z,53.57
2019-02-18T07:28:57.126Z,51.47
2019-02-18T07:31:27.935Z,52.40
2019-02-18T07:34:00.150Z,54.47
2019-02-18T07:36:34.905Z,55.07
2019-02-18T07:39:07.671Z,52.30
2019-02-18T07:41:47.489Z,52.83
2019-02-18T07:44:20.181Z,53.77
2019-02-18T07:46:52.648Z,55.20
2019-02-18T07:49:25.139Z,54.67
2019-02-18T07:51:58.110Z,52.37
2019-02-18T07:54:31.091Z,53.17
2019-02-18T07:57:03.171Z,55.47
2019-02-18T07:59:35.636Z,54.53
2019-02-18T08:02:08.306Z,54.27
2019-02-18T08:04:41.413Z,54.63
2019-02-18T08:07:13.508Z,54.97
2019-02-18T08:09:50.738Z,56.17
2019-02-18T08:12:25.071Z,54.37
2019-02-18T08:15:01.754Z,56.30
2019-02-18T08:17:34.098Z,55.77
2019-02-18T08:20:07.478Z,55.17
2019-02-18T08:22:39.510Z,55.93
2019-02-18T08:25:12.036Z,58.83
2019-02-18T08:27:44.299Z,58.70
2019-02-18T08:30:17.185Z,57.07
2019-02-18T08:32:49.349Z,58.57
2019-02-18T08:35:21.818Z,59.63
2019-02-18T08:37:54.082Z,59.80
2019-02-18T08:40:26.669Z,60.73
2019-02-18T08:43:02.414Z,59.83
2019-02-18T08:45:35.458Z,61.17
2019-02-18T08:48:07.993Z,61.27
2019-02-18T08:50:40.347Z,61.70
2019-02-18T08:53:12.616Z,59.97
2019-02-18T08:55:45.294Z,64.43
2019-02-18T08:58:17.979Z,60.97
2019-02-18T09:00:50.748Z,60.30
2019-02-18T09:03:23.027Z,63.13
2019-02-18T09:05:55.288Z,60.57
2019-02-18T09:08:27.862Z,59.60
2019-02-18T09:11:00.028Z,62.37
2019-02-18T09:13:32.808Z,64.50
2019-02-18T09:16:05.998Z,63.20
2019-02-18T09:18:42.056Z,62.27
2019-02-18T09:21:15.659Z,62.70
2019-02-18T09:24:04.922Z,62.93
2019-02-18T09:26:37.711Z,62.37
2019-02-18T09:29:09.967Z,61.30
2019-02-18T09:31:43.469Z,60.80
2019-02-18T09:34:16.039Z,61.37
2019-02-18T09:36:48.317Z,61.30
2019-02-18T09:39:30.788Z,61.97
2019-02-18T09:41:57.351Z,61.30
2019-02-18T09:44:30.131Z,58.63
2019-02-18T09:47:02.814Z,60.47
2019-02-18T09:49:35.381Z,58.90
2019-02-18T09:52:10.212Z,59.03
2019-02-18T09:54:42.998Z,59.73
2019-02-18T09:57:16.182Z,59.03
2019-02-18T09:59:48.861Z,57.20
2019-02-18T10:02:21.338Z,55.47
2019-02-18T10:04:53.809Z,54.30
2019-02-18T10:07:26.071Z,53.47
2019-02-18T10:09:59.377Z,51.83
2019-02-18T10:12:31.840Z,53.77
2019-02-18T10:15:04.620Z,55.27
2019-02-18T10:17:37.466Z,54.67
2019-02-18T10:20:11.928Z,54.23
2019-02-18T10:22:44.806Z,54.20
2019-02-18T10:25:17.463Z,50.03
2019-02-18T10:27:50.055Z,49.90
2019-02-18T10:30:23.039Z,50.07
2019-02-18T10:32:55.947Z,54.57
2019-02-18T10:35:27.990Z,55.67
2019-02-18T10:38:00.375Z,55.23
2019-02-18T10:40:32.631Z,57.03
2019-02-18T10:43:05.311Z,55.47
2019-02-18T10:45:38.189Z,57.80
2019-02-18T10:48:10.456Z,56.87
2019-02-18T10:50:42.832Z,59.70
2019-02-18T10:53:15.470Z,57.17
2019-02-18T10:55:47.567Z,57.97
2019-02-18T10:58:21.691Z,57.77
2019-02-18T11:00:54.351Z,57.80
2019-02-18T11:03:27.035Z,57.80
2019-02-18T11:05:59.467Z,58.23
2019-02-18T11:08:32.086Z,58.33
2019-02-18T11:11:04.472Z,59.60
2019-02-18T11:13:37.336Z,56.40
2019-02-18T11:16:09.712Z,55.37
2019-02-18T11:18:42.403Z,57.53
2019-02-18T11:21:15.064Z,57.47
2019-02-18T11:23:47.969Z,59.03
2019-02-18T11:26:20.931Z,57.93
2019-02-18T11:28:53.821Z,58.70
2019-02-18T11:31:25.878Z,60.57
2019-02-18T11:33:58.510Z,61.00
2019-02-18T11:36:30.920Z,60.23
2019-02-18T11:39:03.096Z,60.57
2019-02-18T11:41:35.586Z,60.20
2019-02-18T11:44:07.937Z,58.43
2019-02-18T11:46:40.103Z,56.33
2019-02-18T11:49:12.474Z,58.30
2019-02-18T11:51:44.955Z,55.93
2019-02-18T11:54:17.112Z,52.20
2019-02-18T11:56:49.587Z,55.83
2019-02-18T11:59:24.363Z,55.13
2019-02-18T12:01:56.070Z,55.90
2019-02-18T12:04:28.336Z,53.03
2019-02-18T12:07:01.431Z,55.57
2019-02-18T12:09:33.589Z,54.33
2019-02-18T12:12:06.068Z,54.87
2019-02-18T12:14:39.047Z,53.37
2019-02-18T12:17:20.352Z,51.43
2019-02-18T12:19:45.431Z,51.87
2019-02-18T12:22:18.005Z,51.00
2019-02-18T12:24:51.084Z,49.47
2019-02-18T12:27:23.769Z,46.63
2019-02-18T12:29:56.343Z,41.73
2019-02-18T12:32:29.431Z,43.57
2019-02-18T12:35:01.899Z,41.50
2019-02-18T12:37:34.401Z,37.03
2019-02-18T12:40:07.368Z,32.33
2019-02-18T12:42:42.164Z,28.27
2019-02-18T12:45:13.944Z,27.23
2019-02-18T12:47:46.735Z,24.00
2019-02-18T12:50:19.711Z,23.67
2019-02-18T12:52:52.082Z,21.73
2019-02-18T12:55:26.394Z,21.20
2019-02-18T12:58:01.637Z,20.87
2019-02-18T13:00:36.263Z,26.73
2019-02-18T13:03:10.368Z,24.80
2019-02-18T13:05:42.358Z,25.13
2019-02-18T13:08:16.971Z,21.13
2019-02-18T13:10:49.639Z,23.40
2019-02-18T13:13:24.051Z,21.83
2019-02-18T13:15:56.332Z,20.97
2019-02-18T13:18:30.024Z,23.20
2019-02-18T13:21:03.006Z,24.13
2019-02-18T13:23:35.377Z,23.77
2019-02-18T13:26:08.271Z,25.03
2019-02-18T13:28:40.762Z,24.77
2019-02-18T13:31:15.872Z,23.43
2019-02-18T13:33:48.239Z,24.73
2019-02-18T13:36:22.271Z,23.00
2019-02-18T13:38:54.635Z,23.53
2019-02-18T13:41:32.018Z,20.70
2019-02-18T13:44:12.392Z,20.53
2019-02-18T13:46:45.149Z,17.87
2019-02-18T13:49:18.252Z,18.13
2019-02-18T13:51:56.721Z,19.17
2019-02-18T13:54:29.131Z,18.50
2019-02-18T13:57:08.199Z,17.40
2019-02-18T13:59:40.114Z,15.30
2019-02-18T14:02:12.582Z,17.43
2019-02-18T14:04:49.046Z,18.07
2019-02-18T14:07:24.311Z,16.20
2019-02-18T14:09:57.076Z,16.00
2019-02-18T14:12:30.772Z,14.73
2019-02-18T14:15:03.142Z,11.80
2019-02-18T14:17:36.229Z,12.67
2019-02-18T14:20:14.055Z,12.67
2019-02-18T14:22:46.811Z,12.13
2019-02-18T14:25:19.693Z,15.63
2019-02-18T14:27:53.814Z,18.20
2019-02-18T14:30:29.774Z,17.97
2019-02-18T14:33:04.472Z,16.93
2019-02-18T14:35:37.373Z,18.23
2019-02-18T14:38:14.133Z,16.67
2019-02-18T14:40:51.952Z,16.63
2019-02-18T14:43:24.101Z,16.37
2019-02-18T14:45:57.191Z,16.97
2019-02-18T14:48:29.972Z,17.50
2019-02-18T14:51:04.387Z,17.77
2019-02-18T14:53:36.467Z,20.07
2019-02-18T14:56:10.790Z,20.33
2019-02-18T14:58:44.071Z,19.03
2019-02-18T15:01:17.046Z,21.13
2019-02-18T15:03:49.463Z,19.40
2019-02-18T15:06:21.991Z,21.67
2019-02-18T15:08:56.447Z,21.80
2019-02-18T15:11:31.346Z,21.03
2019-02-18T15:14:05.966Z,21.93
2019-02-18T15:16:38.639Z,21.70
2019-02-18T15:19:11.731Z,22.53
2019-02-18T15:21:45.469Z,21.30
2019-02-18T15:24:18.633Z,20.27
2019-02-18T15:26:51.611Z,23.47
2019-02-18T15:29:24.717Z,20.20
2019-02-18T15:35:58.332Z,22.33
2019-02-18T15:42:31.132Z,22.57
2019-02-18T15:49:03.928Z,24.10
2019-02-18T15:51:38.350Z,24.83
2019-02-18T15:54:11.230Z,24.50
2019-02-18T15:56:46.368Z,24.60
2019-02-18T15:59:19.353Z,25.30
2019-02-18T16:01:52.452Z,24.10
2019-02-18T16:04:24.831Z,24.30
2019-02-18T16:06:57.292Z,24.13
2019-02-18T16:09:33.553Z,24.50
2019-02-18T16:14:40.619Z,23.17
2019-02-18T16:17:11.161Z,23.73
2019-02-18T16:19:42.898Z,24.07
2019-02-18T16:22:13.548Z,22.50
2019-02-18T16:24:46.393Z,22.47
2019-02-18T16:27:25.473Z,21.87
2019-02-18T16:29:57.069Z,26.17
2019-02-18T16:32:27.846Z,24.43
2019-02-18T16:34:59.887Z,25.07
2019-02-18T16:37:31.110Z,24.27
2019-02-18T16:40:01.576Z,23.90
2019-02-18T16:42:32.285Z,24.60
2019-02-18T16:45:03.294Z,24.77
2019-02-18T16:47:34.019Z,25.63
2019-02-18T16:50:05.043Z,26.87
2019-02-18T16:52:35.750Z,25.30
2019-02-18T16:55:07.803Z,26.60
2019-02-18T16:57:38.534Z,27.10
2019-02-18T17:00:21.418Z,28.10
2019-02-18T17:02:52.022Z,27.70
2019-02-18T17:05:22.679Z,27.27
2019-02-18T17:07:53.199Z,26.40
2019-02-18T17:10:23.818Z,26.73
2019-02-18T17:12:57.585Z,29.40
2019-02-18T17:15:34.103Z,28.77
2019-02-18T17:18:04.884Z,29.03
2019-02-18T17:20:35.419Z,30.37
2019-02-18T17:23:07.193Z,29.63
2019-02-18T17:25:37.931Z,30.73
2019-02-18T17:28:08.577Z,29.77
2019-02-18T17:30:39.848Z,29.67
2019-02-18T17:33:15.339Z,31.27
2019-02-18T17:35:51.924Z,32.73
2019-02-18T17:38:24.727Z,32.70
2019-02-18T17:40:56.715Z,32.57
2019-02-18T17:43:28.386Z,33.00
2019-02-18T17:46:06.204Z,30.60
2019-02-18T17:48:40.057Z,31.97
2019-02-18T17:51:11.036Z,31.53
2019-02-18T17:53:43.150Z,28.90
2019-02-18T17:56:14.899Z,30.43
2019-02-18T17:58:46.217Z,33.77
2019-02-18T18:01:19.496Z,32.77
2019-02-18T18:03:50.190Z,33.10
2019-02-18T18:06:21.081Z,33.80
2019-02-18T18:08:52.860Z,32.70
2019-02-18T18:11:27.505Z,33.80
2019-02-18T18:14:02.525Z,35.87
2019-02-18T18:16:35.362Z,36.30
2019-02-18T18:19:09.339Z,37.70
2019-02-18T18:21:38.395Z,38.37
2019-02-18T18:24:09.089Z,40.20
2019-02-18T18:26:39.700Z,37.60
2019-02-18T18:29:14.648Z,38.20
2019-02-18T18:31:46.305Z,38.03
2019-02-18T18:34:17.553Z,37.73
2019-02-18T18:36:57.403Z,39.43
2019-02-18T18:39:27.954Z,39.33
2019-02-18T18:41:59.467Z,35.93
2019-02-18T18:44:33.216Z,39.30
2019-02-18T18:47:05.439Z,40.50
2019-02-18T18:49:39.605Z,37.67
2019-02-18T18:52:12.019Z,38.67
2019-02-18T18:54:48.360Z,38.67
2019-02-18T18:57:20.115Z,40.90
2019-02-18T18:59:53.946Z,40.63
2019-02-18T19:02:25.400Z,41.10
2019-02-18T19:04:58.261Z,41.23
2019-02-18T19:07:28.933Z,40.00
2019-02-18T19:10:03.802Z,40.37
2019-02-18T19:12:34.659Z,39.90
2019-02-18T19:15:06.928Z,39.40
2019-02-18T19:17:38.725Z,39.17
2019-02-18T19:20:14.013Z,39.53
2019-02-18T19:22:50.307Z,39.67
2019-02-18T19:25:21.507Z,38.40
2019-02-18T19:27:52.225Z,37.53
2019-02-18T19:30:26.229Z,35.97
2019-02-18T19:32:56.790Z,36.17
2019-02-18T19:35:28.505Z,36.10
2019-02-18T19:38:01.442Z,36.20
2019-02-18T19:40:32.908Z,36.13
2019-02-18T19:43:12.123Z,36.90
2019-02-18T19:45:52.132Z,37.57
2019-02-18T19:48:26.371Z,39.43
2019-02-18T19:50:59.233Z,40.43
2019-02-18T19:53:31.139Z,40.70
2019-02-18T19:56:11.729Z,41.57
2019-02-18T19:58:43.933Z,42.83
2019-02-18T20:01:27.089Z,42.60
2019-02-18T20:04:08.501Z,40.07
2019-02-18T20:06:42.755Z,39.30
2019-02-18T20:09:16.475Z,39.30
2019-02-18T20:11:51.301Z,36.90
2019-02-18T20:14:30.110Z,36.67
2019-02-18T20:17:04.915Z,38.30
2019-02-18T20:19:45.744Z,38.77
2019-02-18T20:22:24.638Z,37.10
2019-02-18T20:24:56.389Z,38.83
2019-02-18T20:27:33.809Z,39.57
2019-02-18T20:30:13.250Z,39.43
2019-02-18T20:32:49.218Z,38.80
2019-02-18T20:35:24.413Z,39.33
2019-02-18T20:37:57.180Z,38.37
2019-02-18T20:40:28.088Z,39.87
2019-02-18T20:43:00.703Z,39.80
2019-02-18T20:45:35.786Z,39.03
2019-02-18T20:48:11.134Z,37.93
2019-02-18T20:50:43.553Z,39.43
2019-02-18T20:56:09.614Z,40.17
2019-02-18T20:58:40.595Z,41.60
2019-02-18T21:01:12.404Z,40.97
2019-02-18T21:03:46.485Z,46.73
2019-02-18T21:06:17.523Z,51.13
2019-02-18T21:08:50.909Z,49.87
2019-02-18T21:11:24.943Z,47.60
2019-02-18T21:13:59.889Z,48.30
2019-02-18T21:16:30.529Z,50.97
2019-02-18T21:19:02.062Z,47.20
2019-02-18T21:21:32.683Z,43.97
2019-02-18T21:24:07.909Z,42.77
2019-02-18T21:26:38.739Z,45.27
2019-02-18T21:29:10.159Z,49.13
2019-02-18T21:31:40.852Z,44.73
2019-02-18T21:34:11.440Z,47.63
2019-02-18T21:36:41.964Z,46.77
2019-02-18T21:39:15.652Z,45.17
2019-02-18T21:41:46.273Z,45.70
2019-02-18T21:44:24.705Z,44.77
2019-02-18T21:46:49.130Z,44.17
2019-02-18T21:49:19.671Z,46.20
2019-02-18T21:51:50.260Z,49.13
2019-02-18T21:54:20.899Z,48.77
2019-02-18T21:56:51.627Z,47.87
2019-02-18T21:59:22.152Z,47.83
2019-02-18T22:01:53.178Z,52.70
2019-02-18T22:04:23.820Z,48.93
2019-02-18T22:06:54.192Z,45.23
2019-02-18T22:09:24.708Z,44.03
2019-02-18T22:11:55.176Z,46.47
2019-02-18T22:14:33.102Z,45.23
2019-02-18T22:16:57.792Z,48.30
2019-02-18T22:19:28.338Z,47.30
2019-02-18T22:21:58.890Z,48.50
2019-02-18T22:24:29.378Z,46.63
2019-02-18T22:26:59.870Z,46.60
2019-02-18T22:29:31.004Z,47.77
2019-02-18T22:32:01.407Z,45.20
2019-02-18T22:34:32.024Z,45.30
2019-02-18T22:37:02.591Z,44.20
2019-02-18T22:39:32.960Z,45.17
2019-02-18T22:42:03.599Z,47.77
2019-02-18T22:44:41.709Z,43.80
2019-02-18T22:47:07.250Z,46.30
2019-02-18T22:49:37.672Z,46.97
2019-02-18T22:52:08.258Z,43.93
2019-02-18T22:54:38.801Z,43.57
2019-02-18T22:57:09.787Z,46.33
2019-02-18T22:59:40.572Z,44.10
2019-02-18T23:02:11.749Z,44.93
2019-02-18T23:04:42.354Z,44.87
2019-02-18T23:07:12.934Z,43.90
2019-02-18T23:09:43.562Z,43.70
2019-02-18T23:12:14.558Z,43.27
2019-02-18T23:14:50.492Z,41.30
2019-02-18T23:17:17.416Z,41.23
2019-02-18T23:19:48.005Z,41.23
2019-02-18T23:22:18.854Z,40.80
2019-02-18T23:24:49.604Z,39.73
2019-02-18T23:27:20.294Z,40.07
2019-02-18T23:29:50.884Z,37.67
2019-02-18T23:32:21.504Z,37.80
2019-02-18T23:34:51.949Z,38.63
2019-02-18T23:37:22.654Z,36.23
2019-02-18T23:39:53.179Z,35.40
2019-02-18T23:42:23.726Z,36.97
2019-02-18T23:44:59.285Z,37.67
2019-02-18T23:47:26.573Z,42.83
2019-02-18T23:49:57.004Z,52.87
2019-02-18T23:52:27.352Z,53.00
2019-02-18T23:54:57.776Z,53.67
2019-02-18T23:57:29.851Z,54.33
